KPKB/PKB METAR and TAF weather

Enter ICAO airport designator
Station Type Date Time Source
KPKB METAR 2021/07/28 04:53 UTC NOAA

KPKB 280453Z AUTO 00000KT 8SM CLR 19/17 A3005 RMK AO2 SLP168 T01890172 403220150


Station Type Date Time Source
KPKB Decoded METAR 2021/07/28 04:53 UTC NOAA

MID-OHIO VALLEY RGNL AIRPORT, WV, United States (KPKB) 39-20N 81-27W
Jul 28, 2021 - 12:53 AM EDT / 2021.07.28 0453 UTC
Wind: Calm:0
Visibility: 8 mile(s):0
Sky conditions: clear
Temperature: 66.0 F (18.9 C)
Dew Point: 63.0 F (17.2 C)
Relative Humidity: 89%
Pressure (altimeter): 30.05 in. Hg (1017 hPa)
ob: KPKB 280453Z AUTO 00000KT 8SM CLR 19/17 A3005 RMK AO2 SLP168 T01890172 403220150
cycle: 5

Station Type Date Time Source
KPKB TAF 2021/07/28 06:22 UTC NOAA

TAF KPKB 280520Z 2806/2906 00000KT P6SM SKC
FM280800 00000KT 5SM BR FEW250
FM281000 00000KT 2SM BR SKC
FM281200 00000KT P6SM SKC
FM290500 00000KT 6SM BR SCT120

Example: see airport list